sensor_id;sensor_type;location;lat;lon;timestamp;P1;durP1;ratioP1;P2;durP2;ratioP2
26820;SDS011;37186;51.394;5.454;2023-05-10T00:02:58;5.85;;;5.68;;
26820;SDS011;37186;51.394;5.454;2023-05-10T00:05:59;5.78;;;5.63;;
26820;SDS011;37186;51.394;5.454;2023-05-10T00:08:59;6.00;;;5.80;;
26820;SDS011;37186;51.394;5.454;2023-05-10T00:12:00;5.80;;;5.65;;
26820;SDS011;37186;51.394;5.454;2023-05-10T00:15:01;6.13;;;5.93;;
26820;SDS011;37186;51.394;5.454;2023-05-10T00:18:02;6.10;;;5.90;;
26820;SDS011;37186;51.394;5.454;2023-05-10T00:21:03;5.50;;;5.40;;
26820;SDS011;37186;51.394;5.454;2023-05-10T00:24:04;6.03;;;5.82;;
26820;SDS011;37186;51.394;5.454;2023-05-10T00:27:04;5.97;;;5.78;;
26820;SDS011;37186;51.394;5.454;2023-05-10T00:30:05;6.00;;;5.80;;
26820;SDS011;37186;51.394;5.454;2023-05-10T00:33:06;5.53;;;5.43;;
26820;SDS011;37186;51.394;5.454;2023-05-10T00:36:07;6.07;;;5.88;;
26820;SDS011;37186;51.394;5.454;2023-05-10T00:39:08;5.32;;;5.22;;
26820;SDS011;37186;51.394;5.454;2023-05-10T00:42:08;6.15;;;5.95;;
26820;SDS011;37186;51.394;5.454;2023-05-10T00:45:09;6.05;;;5.85;;
26820;SDS011;37186;51.394;5.454;2023-05-10T00:48:09;5.80;;;5.65;;
26820;SDS011;37186;51.394;5.454;2023-05-10T00:51:10;6.32;;;6.13;;
26820;SDS011;37186;51.394;5.454;2023-05-10T00:54:11;5.90;;;5.72;;
26820;SDS011;37186;51.394;5.454;2023-05-10T00:57:13;5.70;;;5.55;;
26820;SDS011;37186;51.394;5.454;2023-05-10T01:00:14;5.72;;;5.57;;
26820;SDS011;37186;51.394;5.454;2023-05-10T01:03:18;5.88;;;5.70;;
26820;SDS011;37186;51.394;5.454;2023-05-10T01:06:19;5.55;;;5.45;;
26820;SDS011;37186;51.394;5.454;2023-05-10T01:09:20;5.32;;;5.22;;
26820;SDS011;37186;51.394;5.454;2023-05-10T01:12:21;5.60;;;5.50;;
26820;SDS011;37186;51.394;5.454;2023-05-10T01:15:22;5.43;;;5.32;;
26820;SDS011;37186;51.394;5.454;2023-05-10T01:18:23;5.70;;;5.57;;
26820;SDS011;37186;51.394;5.454;2023-05-10T01:21:31;6.05;;;5.85;;
26820;SDS011;37186;51.394;5.454;2023-05-10T01:28:34;5.38;;;5.28;;
26820;SDS011;37186;51.394;5.454;2023-05-10T01:32:21;5.43;;;5.32;;
26820;SDS011;37186;51.394;5.454;2023-05-10T01:35:46;5.53;;;5.43;;
26820;SDS011;37186;51.394;5.454;2023-05-10T01:42:29;5.75;;;5.60;;
26820;SDS011;37186;51.394;5.454;2023-05-10T01:45:41;6.05;;;5.85;;
26820;SDS011;37186;51.394;5.454;2023-05-10T01:48:52;5.55;;;5.45;;
26820;SDS011;37186;51.394;5.454;2023-05-10T01:51:59;5.95;;;5.78;;
26820;SDS011;37186;51.394;5.454;2023-05-10T01:55:07;5.95;;;5.75;;
26820;SDS011;37186;51.394;5.454;2023-05-10T01:58:15;5.95;;;5.75;;
26820;SDS011;37186;51.394;5.454;2023-05-10T02:01:20;5.82;;;5.65;;
26820;SDS011;37186;51.394;5.454;2023-05-10T02:04:22;6.32;;;6.13;;
26820;SDS011;37186;51.394;5.454;2023-05-10T02:07:24;6.05;;;5.85;;
26820;SDS011;37186;51.394;5.454;2023-05-10T02:10:28;6.10;;;5.90;;
26820;SDS011;37186;51.394;5.454;2023-05-10T02:13:30;5.93;;;5.75;;
26820;SDS011;37186;51.394;5.454;2023-05-10T02:16:34;6.43;;;6.22;;
26820;SDS011;37186;51.394;5.454;2023-05-10T02:19:36;6.15;;;5.95;;
26820;SDS011;37186;51.394;5.454;2023-05-10T02:22:38;6.00;;;5.80;;
26820;SDS011;37186;51.394;5.454;2023-05-10T02:25:41;5.97;;;5.80;;
26820;SDS011;37186;51.394;5.454;2023-05-10T02:28:43;6.28;;;6.07;;
26820;SDS011;37186;51.394;5.454;2023-05-10T02:31:45;5.53;;;5.43;;
26820;SDS011;37186;51.394;5.454;2023-05-10T02:34:46;5.68;;;5.55;;
26820;SDS011;37186;51.394;5.454;2023-05-10T02:37:51;5.70;;;5.57;;
26820;SDS011;37186;51.394;5.454;2023-05-10T02:40:53;5.68;;;5.55;;
26820;SDS011;37186;51.394;5.454;2023-05-10T02:43:55;5.43;;;5.32;;
26820;SDS011;37186;51.394;5.454;2023-05-10T02:47:01;5.55;;;5.45;;
26820;SDS011;37186;51.394;5.454;2023-05-10T02:50:01;5.40;;;5.30;;
26820;SDS011;37186;51.394;5.454;2023-05-10T02:53:06;5.55;;;5.45;;
26820;SDS011;37186;51.394;5.454;2023-05-10T02:56:15;5.43;;;5.32;;
26820;SDS011;37186;51.394;5.454;2023-05-10T02:59:25;5.32;;;5.22;;
26820;SDS011;37186;51.394;5.454;2023-05-10T03:02:26;5.38;;;5.28;;
26820;SDS011;37186;51.394;5.454;2023-05-10T03:05:26;5.15;;;5.05;;
26820;SDS011;37186;51.394;5.454;2023-05-10T03:08:27;5.60;;;5.50;;
26820;SDS011;37186;51.394;5.454;2023-05-10T03:21:45;5.13;;;5.03;;
26820;SDS011;37186;51.394;5.454;2023-05-10T03:24:55;5.28;;;5.18;;
26820;SDS011;37186;51.394;5.454;2023-05-10T03:27:57;5.32;;;5.22;;
26820;SDS011;37186;51.394;5.454;2023-05-10T03:30:59;5.45;;;5.35;;
26820;SDS011;37186;51.394;5.454;2023-05-10T03:34:00;5.80;;;5.65;;
26820;SDS011;37186;51.394;5.454;2023-05-10T03:37:01;5.45;;;5.35;;
26820;SDS011;37186;51.394;5.454;2023-05-10T03:40:02;5.75;;;5.60;;
26820;SDS011;37186;51.394;5.454;2023-05-10T03:43:03;5.38;;;5.28;;
26820;SDS011;37186;51.394;5.454;2023-05-10T03:46:04;5.70;;;5.57;;
26820;SDS011;37186;51.394;5.454;2023-05-10T03:49:05;5.82;;;5.68;;
26820;SDS011;37186;51.394;5.454;2023-05-10T03:52:06;5.45;;;5.35;;
26820;SDS011;37186;51.394;5.454;2023-05-10T03:55:06;6.15;;;5.95;;
26820;SDS011;37186;51.394;5.454;2023-05-10T03:58:10;6.03;;;5.82;;
26820;SDS011;37186;51.394;5.454;2023-05-10T04:01:11;5.63;;;5.53;;
26820;SDS011;37186;51.394;5.454;2023-05-10T04:04:11;5.82;;;5.68;;
26820;SDS011;37186;51.394;5.454;2023-05-10T04:07:12;5.53;;;5.43;;
26820;SDS011;37186;51.394;5.454;2023-05-10T04:10:12;6.00;;;5.80;;
26820;SDS011;37186;51.394;5.454;2023-05-10T04:13:13;5.32;;;5.22;;
26820;SDS011;37186;51.394;5.454;2023-05-10T04:16:13;5.43;;;5.32;;
26820;SDS011;37186;51.394;5.454;2023-05-10T04:19:14;5.93;;;5.75;;
26820;SDS011;37186;51.394;5.454;2023-05-10T04:22:14;5.60;;;5.50;;
26820;SDS011;37186;51.394;5.454;2023-05-10T04:25:15;5.53;;;5.43;;
26820;SDS011;37186;51.394;5.454;2023-05-10T04:28:16;5.65;;;5.53;;
26820;SDS011;37186;51.394;5.454;2023-05-10T04:31:17;5.88;;;5.72;;
26820;SDS011;37186;51.394;5.454;2023-05-10T04:34:17;5.45;;;5.35;;
26820;SDS011;37186;51.394;5.454;2023-05-10T04:37:20;5.80;;;5.63;;
26820;SDS011;37186;51.394;5.454;2023-05-10T04:40:21;5.47;;;5.38;;
26820;SDS011;37186;51.394;5.454;2023-05-10T04:43:21;5.28;;;5.18;;
26820;SDS011;37186;51.394;5.454;2023-05-10T04:46:22;5.95;;;5.78;;
26820;SDS011;37186;51.394;5.454;2023-05-10T04:49:22;5.78;;;5.63;;
26820;SDS011;37186;51.394;5.454;2023-05-10T04:52:23;5.55;;;5.45;;
26820;SDS011;37186;51.394;5.454;2023-05-10T04:55:24;6.15;;;5.95;;
26820;SDS011;37186;51.394;5.454;2023-05-10T04:58:24;6.30;;;6.10;;
26820;SDS011;37186;51.394;5.454;2023-05-10T05:01:25;6.10;;;5.90;;
26820;SDS011;37186;51.394;5.454;2023-05-10T05:04:26;6.00;;;5.80;;
26820;SDS011;37186;51.394;5.454;2023-05-10T05:07:26;6.10;;;5.90;;
26820;SDS011;37186;51.394;5.454;2023-05-10T05:10:27;5.95;;;5.75;;
26820;SDS011;37186;51.394;5.454;2023-05-10T05:13:28;5.68;;;5.57;;
26820;SDS011;37186;51.394;5.454;2023-05-10T05:16:30;5.75;;;5.63;;
26820;SDS011;37186;51.394;5.454;2023-05-10T05:19:31;5.50;;;5.40;;
26820;SDS011;37186;51.394;5.454;2023-05-10T05:22:32;6.35;;;6.15;;
26820;SDS011;37186;51.394;5.454;2023-05-10T05:25:32;5.95;;;5.75;;
26820;SDS011;37186;51.394;5.454;2023-05-10T05:28:33;5.63;;;5.53;;
26820;SDS011;37186;51.394;5.454;2023-05-10T05:31:37;5.57;;;5.47;;
26820;SDS011;37186;51.394;5.454;2023-05-10T05:34:37;5.95;;;5.78;;
26820;SDS011;37186;51.394;5.454;2023-05-10T05:37:38;5.38;;;5.28;;
26820;SDS011;37186;51.394;5.454;2023-05-10T05:40:38;5.68;;;5.55;;
26820;SDS011;37186;51.394;5.454;2023-05-10T05:43:39;5.68;;;5.57;;
26820;SDS011;37186;51.394;5.454;2023-05-10T05:46:39;6.00;;;5.80;;
26820;SDS011;37186;51.394;5.454;2023-05-10T05:49:40;5.88;;;5.68;;
26820;SDS011;37186;51.394;5.454;2023-05-10T05:52:41;5.90;;;5.72;;
26820;SDS011;37186;51.394;5.454;2023-05-10T05:55:50;6.15;;;5.95;;
26820;SDS011;37186;51.394;5.454;2023-05-10T05:58:54;6.35;;;6.15;;
26820;SDS011;37186;51.394;5.454;2023-05-10T06:01:55;6.32;;;6.13;;
26820;SDS011;37186;51.394;5.454;2023-05-10T06:04:55;5.32;;;5.22;;
26820;SDS011;37186;51.394;5.454;2023-05-10T06:07:56;5.80;;;5.60;;
26820;SDS011;37186;51.394;5.454;2023-05-10T06:10:56;5.47;;;5.38;;
26820;SDS011;37186;51.394;5.454;2023-05-10T06:13:57;5.50;;;5.40;;
26820;SDS011;37186;51.394;5.454;2023-05-10T06:16:58;5.40;;;5.30;;
26820;SDS011;37186;51.394;5.454;2023-05-10T06:19:59;5.18;;;5.07;;
26820;SDS011;37186;51.394;5.454;2023-05-10T06:23:00;5.40;;;5.30;;
26820;SDS011;37186;51.394;5.454;2023-05-10T06:26:01;5.45;;;5.35;;
26820;SDS011;37186;51.394;5.454;2023-05-10T06:29:01;5.30;;;5.20;;
26820;SDS011;37186;51.394;5.454;2023-05-10T06:32:02;5.38;;;5.28;;
26820;SDS011;37186;51.394;5.454;2023-05-10T06:35:03;5.45;;;5.35;;
26820;SDS011;37186;51.394;5.454;2023-05-10T06:38:03;5.75;;;5.60;;
26820;SDS011;37186;51.394;5.454;2023-05-10T06:41:04;5.63;;;5.53;;
26820;SDS011;37186;51.394;5.454;2023-05-10T06:44:05;5.47;;;5.38;;
26820;SDS011;37186;51.394;5.454;2023-05-10T06:47:06;5.38;;;5.28;;
26820;SDS011;37186;51.394;5.454;2023-05-10T06:50:07;5.13;;;5.03;;
26820;SDS011;37186;51.394;5.454;2023-05-10T06:53:08;5.13;;;5.03;;
26820;SDS011;37186;51.394;5.454;2023-05-10T06:56:09;5.53;;;5.43;;
26820;SDS011;37186;51.394;5.454;2023-05-10T06:59:09;5.55;;;5.45;;
26820;SDS011;37186;51.394;5.454;2023-05-10T07:02:10;5.32;;;5.22;;
26820;SDS011;37186;51.394;5.454;2023-05-10T07:05:10;5.10;;;5.00;;
26820;SDS011;37186;51.394;5.454;2023-05-10T07:08:11;5.22;;;5.13;;
26820;SDS011;37186;51.394;5.454;2023-05-10T07:11:13;5.28;;;5.18;;
26820;SDS011;37186;51.394;5.454;2023-05-10T07:14:13;5.13;;;5.03;;
26820;SDS011;37186;51.394;5.454;2023-05-10T07:17:14;4.57;;;4.47;;
26820;SDS011;37186;51.394;5.454;2023-05-10T07:20:15;4.70;;;4.60;;
26820;SDS011;37186;51.394;5.454;2023-05-10T07:23:15;4.78;;;4.68;;
26820;SDS011;37186;51.394;5.454;2023-05-10T07:26:17;4.55;;;4.45;;
26820;SDS011;37186;51.394;5.454;2023-05-10T07:29:18;4.60;;;4.50;;
26820;SDS011;37186;51.394;5.454;2023-05-10T07:32:18;4.60;;;4.50;;
26820;SDS011;37186;51.394;5.454;2023-05-10T07:35:19;4.78;;;4.68;;
26820;SDS011;37186;51.394;5.454;2023-05-10T07:38:19;4.70;;;4.60;;
26820;SDS011;37186;51.394;5.454;2023-05-10T07:41:20;4.43;;;4.32;;
26820;SDS011;37186;51.394;5.454;2023-05-10T07:44:21;4.40;;;4.30;;
26820;SDS011;37186;51.394;5.454;2023-05-10T07:47:21;4.28;;;4.18;;
26820;SDS011;37186;51.394;5.454;2023-05-10T07:50:22;4.30;;;4.20;;
26820;SDS011;37186;51.394;5.454;2023-05-10T07:53:22;4.40;;;4.30;;
26820;SDS011;37186;51.394;5.454;2023-05-10T07:56:27;4.43;;;4.32;;
26820;SDS011;37186;51.394;5.454;2023-05-10T07:59:31;4.53;;;4.43;;
26820;SDS011;37186;51.394;5.454;2023-05-10T08:02:35;4.60;;;4.50;;
26820;SDS011;37186;51.394;5.454;2023-05-10T08:05:36;4.60;;;4.50;;
26820;SDS011;37186;51.394;5.454;2023-05-10T08:08:36;4.68;;;4.57;;
26820;SDS011;37186;51.394;5.454;2023-05-10T08:11:37;4.78;;;4.68;;
26820;SDS011;37186;51.394;5.454;2023-05-10T08:14:38;4.57;;;4.47;;
26820;SDS011;37186;51.394;5.454;2023-05-10T08:17:39;4.65;;;4.55;;
26820;SDS011;37186;51.394;5.454;2023-05-10T08:20:39;4.88;;;4.78;;
26820;SDS011;37186;51.394;5.454;2023-05-10T08:23:40;4.65;;;4.55;;
26820;SDS011;37186;51.394;5.454;2023-05-10T08:26:40;5.10;;;5.00;;
26820;SDS011;37186;51.394;5.454;2023-05-10T08:29:41;4.90;;;4.80;;
26820;SDS011;37186;51.394;5.454;2023-05-10T08:32:41;4.60;;;4.50;;
26820;SDS011;37186;51.394;5.454;2023-05-10T08:35:42;4.72;;;4.63;;
26820;SDS011;37186;51.394;5.454;2023-05-10T08:38:42;4.32;;;4.22;;
26820;SDS011;37186;51.394;5.454;2023-05-10T08:41:44;4.80;;;4.70;;
26820;SDS011;37186;51.394;5.454;2023-05-10T08:44:47;4.50;;;4.40;;
26820;SDS011;37186;51.394;5.454;2023-05-10T08:47:48;4.70;;;4.60;;
26820;SDS011;37186;51.394;5.454;2023-05-10T08:50:51;4.88;;;4.78;;
26820;SDS011;37186;51.394;5.454;2023-05-10T08:53:54;4.63;;;4.53;;
26820;SDS011;37186;51.394;5.454;2023-05-10T08:56:55;4.95;;;4.85;;
26820;SDS011;37186;51.394;5.454;2023-05-10T08:59:56;4.97;;;4.88;;
26820;SDS011;37186;51.394;5.454;2023-05-10T09:02:57;4.75;;;4.65;;
26820;SDS011;37186;51.394;5.454;2023-05-10T09:05:58;4.60;;;4.50;;
26820;SDS011;37186;51.394;5.454;2023-05-10T09:08:59;4.93;;;4.82;;
26820;SDS011;37186;51.394;5.454;2023-05-10T09:12:00;5.32;;;5.22;;
26820;SDS011;37186;51.394;5.454;2023-05-10T09:15:00;5.43;;;5.32;;
26820;SDS011;37186;51.394;5.454;2023-05-10T09:18:03;5.47;;;5.38;;
26820;SDS011;37186;51.394;5.454;2023-05-10T09:21:04;5.20;;;5.10;;
26820;SDS011;37186;51.394;5.454;2023-05-10T09:24:05;5.22;;;5.13;;
26820;SDS011;37186;51.394;5.454;2023-05-10T09:27:06;5.47;;;5.38;;
26820;SDS011;37186;51.394;5.454;2023-05-10T09:30:07;5.88;;;5.68;;
26820;SDS011;37186;51.394;5.454;2023-05-10T09:33:08;5.80;;;5.65;;
26820;SDS011;37186;51.394;5.454;2023-05-10T09:36:09;5.75;;;5.60;;
26820;SDS011;37186;51.394;5.454;2023-05-10T09:39:09;5.78;;;5.63;;
26820;SDS011;37186;51.394;5.454;2023-05-10T09:42:10;5.90;;;5.72;;
26820;SDS011;37186;51.394;5.454;2023-05-10T09:45:11;6.00;;;5.80;;
26820;SDS011;37186;51.394;5.454;2023-05-10T09:48:11;6.10;;;5.90;;
26820;SDS011;37186;51.394;5.454;2023-05-10T09:51:18;5.95;;;5.75;;
26820;SDS011;37186;51.394;5.454;2023-05-10T09:54:20;5.65;;;5.53;;
26820;SDS011;37186;51.394;5.454;2023-05-10T09:57:21;5.20;;;5.10;;
26820;SDS011;37186;51.394;5.454;2023-05-10T10:00:22;4.60;;;4.50;;
26820;SDS011;37186;51.394;5.454;2023-05-10T10:03:23;4.63;;;4.53;;
26820;SDS011;37186;51.394;5.454;2023-05-10T10:06:24;4.50;;;4.40;;
26820;SDS011;37186;51.394;5.454;2023-05-10T10:09:25;4.72;;;4.63;;
26820;SDS011;37186;51.394;5.454;2023-05-10T10:12:26;4.50;;;4.40;;
26820;SDS011;37186;51.394;5.454;2023-05-10T10:15:27;4.82;;;4.72;;
26820;SDS011;37186;51.394;5.454;2023-05-10T10:18:28;4.70;;;4.60;;
26820;SDS011;37186;51.394;5.454;2023-05-10T10:21:31;4.75;;;4.65;;
26820;SDS011;37186;51.394;5.454;2023-05-10T10:24:32;4.25;;;4.15;;
26820;SDS011;37186;51.394;5.454;2023-05-10T10:27:39;4.50;;;4.40;;
26820;SDS011;37186;51.394;5.454;2023-05-10T10:30:51;4.30;;;4.20;;
26820;SDS011;37186;51.394;5.454;2023-05-10T10:34:01;4.30;;;4.20;;
26820;SDS011;37186;51.394;5.454;2023-05-10T10:37:06;4.47;;;4.38;;
26820;SDS011;37186;51.394;5.454;2023-05-10T10:43:27;3.85;;;3.75;;
26820;SDS011;37186;51.394;5.454;2023-05-10T10:46:28;4.18;;;4.07;;
26820;SDS011;37186;51.394;5.454;2023-05-10T10:49:32;4.10;;;4.00;;
26820;SDS011;37186;51.394;5.454;2023-05-10T10:52:37;3.88;;;3.78;;
26820;SDS011;37186;51.394;5.454;2023-05-10T10:55:49;3.97;;;3.88;;
26820;SDS011;37186;51.394;5.454;2023-05-10T10:58:50;3.85;;;3.75;;
26820;SDS011;37186;51.394;5.454;2023-05-10T11:01:51;3.92;;;3.83;;
26820;SDS011;37186;51.394;5.454;2023-05-10T11:04:52;4.20;;;4.10;;
26820;SDS011;37186;51.394;5.454;2023-05-10T11:07:56;4.22;;;4.13;;
26820;SDS011;37186;51.394;5.454;2023-05-10T11:14:05;4.05;;;3.95;;
26820;SDS011;37186;51.394;5.454;2023-05-10T11:17:28;4.20;;;4.10;;
26820;SDS011;37186;51.394;5.454;2023-05-10T11:20:32;4.03;;;3.92;;
26820;SDS011;37186;51.394;5.454;2023-05-10T11:26:39;4.13;;;4.03;;
26820;SDS011;37186;51.394;5.454;2023-05-10T11:29:40;3.80;;;3.70;;
26820;SDS011;37186;51.394;5.454;2023-05-10T11:32:43;3.83;;;3.72;;
26820;SDS011;37186;51.394;5.454;2023-05-10T11:35:44;3.92;;;3.83;;
26820;SDS011;37186;51.394;5.454;2023-05-10T11:38:45;4.13;;;4.03;;
26820;SDS011;37186;51.394;5.454;2023-05-10T11:41:47;4.10;;;4.00;;
26820;SDS011;37186;51.394;5.454;2023-05-10T11:44:49;4.18;;;4.07;;
26820;SDS011;37186;51.394;5.454;2023-05-10T11:47:49;4.00;;;3.90;;
26820;SDS011;37186;51.394;5.454;2023-05-10T11:50:50;3.95;;;3.85;;
26820;SDS011;37186;51.394;5.454;2023-05-10T11:53:52;4.50;;;4.40;;
26820;SDS011;37186;51.394;5.454;2023-05-10T11:56:54;4.28;;;4.18;;
26820;SDS011;37186;51.394;5.454;2023-05-10T11:59:58;4.40;;;4.30;;
26820;SDS011;37186;51.394;5.454;2023-05-10T12:03:00;4.55;;;4.45;;
26820;SDS011;37186;51.394;5.454;2023-05-10T12:06:01;4.50;;;4.40;;
26820;SDS011;37186;51.394;5.454;2023-05-10T12:09:05;4.68;;;4.57;;
26820;SDS011;37186;51.394;5.454;2023-05-10T12:12:07;4.60;;;4.50;;
26820;SDS011;37186;51.394;5.454;2023-05-10T12:18:22;5.40;;;5.30;;
26820;SDS011;37186;51.394;5.454;2023-05-10T12:21:25;5.25;;;5.15;;
26820;SDS011;37186;51.394;5.454;2023-05-10T12:24:27;5.60;;;5.50;;
26820;SDS011;37186;51.394;5.454;2023-05-10T12:27:31;4.80;;;4.70;;
26820;SDS011;37186;51.394;5.454;2023-05-10T12:30:32;5.10;;;5.00;;
26820;SDS011;37186;51.394;5.454;2023-05-10T12:33:41;5.28;;;5.18;;
26820;SDS011;37186;51.394;5.454;2023-05-10T12:36:43;5.65;;;5.53;;
26820;SDS011;37186;51.394;5.454;2023-05-10T12:39:44;5.93;;;5.75;;
26820;SDS011;37186;51.394;5.454;2023-05-10T12:42:45;6.18;;;5.97;;
26820;SDS011;37186;51.394;5.454;2023-05-10T12:45:46;6.43;;;6.22;;
26820;SDS011;37186;51.394;5.454;2023-05-10T12:48:48;7.75;;;7.55;;
26820;SDS011;37186;51.394;5.454;2023-05-10T12:51:54;7.32;;;7.13;;
26820;SDS011;37186;51.394;5.454;2023-05-10T12:54:55;7.07;;;6.88;;
26820;SDS011;37186;51.394;5.454;2023-05-10T12:57:55;8.40;;;8.20;;
26820;SDS011;37186;51.394;5.454;2023-05-10T13:00:57;9.05;;;8.75;;
26820;SDS011;37186;51.394;5.454;2023-05-10T13:03:58;8.95;;;8.68;;
26820;SDS011;37186;51.394;5.454;2023-05-10T13:07:00;8.18;;;7.97;;
26820;SDS011;37186;51.394;5.454;2023-05-10T13:10:02;7.35;;;7.15;;
26820;SDS011;37186;51.394;5.454;2023-05-10T13:13:02;6.13;;;5.95;;
26820;SDS011;37186;51.394;5.454;2023-05-10T13:16:03;6.07;;;5.88;;
26820;SDS011;37186;51.394;5.454;2023-05-10T13:19:04;6.68;;;6.47;;
26820;SDS011;37186;51.394;5.454;2023-05-10T13:22:04;5.93;;;5.75;;
26820;SDS011;37186;51.394;5.454;2023-05-10T13:25:05;5.95;;;5.75;;
26820;SDS011;37186;51.394;5.454;2023-05-10T13:28:05;5.95;;;5.75;;
26820;SDS011;37186;51.394;5.454;2023-05-10T13:31:06;5.80;;;5.60;;
26820;SDS011;37186;51.394;5.454;2023-05-10T13:34:07;6.00;;;5.80;;
26820;SDS011;37186;51.394;5.454;2023-05-10T13:37:07;6.10;;;5.90;;
26820;SDS011;37186;51.394;5.454;2023-05-10T13:40:08;6.03;;;5.82;;
26820;SDS011;37186;51.394;5.454;2023-05-10T13:43:10;6.72;;;6.53;;
26820;SDS011;37186;51.394;5.454;2023-05-10T13:46:10;6.07;;;5.88;;
26820;SDS011;37186;51.394;5.454;2023-05-10T13:49:11;5.88;;;5.68;;
26820;SDS011;37186;51.394;5.454;2023-05-10T13:52:11;5.60;;;5.50;;
26820;SDS011;37186;51.394;5.454;2023-05-10T13:55:12;5.15;;;5.05;;
26820;SDS011;37186;51.394;5.454;2023-05-10T13:58:13;5.35;;;5.25;;
26820;SDS011;37186;51.394;5.454;2023-05-10T14:01:13;5.25;;;5.15;;
26820;SDS011;37186;51.394;5.454;2023-05-10T14:04:14;5.30;;;5.20;;
26820;SDS011;37186;51.394;5.454;2023-05-10T14:07:15;5.85;;;5.68;;
26820;SDS011;37186;51.394;5.454;2023-05-10T14:10:15;5.45;;;5.32;;
26820;SDS011;37186;51.394;5.454;2023-05-10T14:13:16;5.22;;;5.13;;
26820;SDS011;37186;51.394;5.454;2023-05-10T14:16:16;5.13;;;5.03;;
26820;SDS011;37186;51.394;5.454;2023-05-10T14:19:17;5.07;;;4.97;;
26820;SDS011;37186;51.394;5.454;2023-05-10T14:22:17;5.30;;;5.20;;
26820;SDS011;37186;51.394;5.454;2023-05-10T14:25:18;5.75;;;5.63;;
26820;SDS011;37186;51.394;5.454;2023-05-10T14:28:19;6.03;;;5.82;;
26820;SDS011;37186;51.394;5.454;2023-05-10T14:31:20;5.15;;;5.05;;
26820;SDS011;37186;51.394;5.454;2023-05-10T14:34:21;4.90;;;4.80;;
26820;SDS011;37186;51.394;5.454;2023-05-10T14:37:21;4.82;;;4.72;;
26820;SDS011;37186;51.394;5.454;2023-05-10T14:40:22;4.65;;;4.55;;
26820;SDS011;37186;51.394;5.454;2023-05-10T14:43:22;4.85;;;4.75;;
26820;SDS011;37186;51.394;5.454;2023-05-10T14:46:23;4.57;;;4.47;;
26820;SDS011;37186;51.394;5.454;2023-05-10T14:49:23;4.57;;;4.47;;
26820;SDS011;37186;51.394;5.454;2023-05-10T14:52:25;4.55;;;4.45;;
26820;SDS011;37186;51.394;5.454;2023-05-10T14:55:26;4.82;;;4.72;;
26820;SDS011;37186;51.394;5.454;2023-05-10T14:58:27;4.95;;;4.85;;
26820;SDS011;37186;51.394;5.454;2023-05-10T15:01:27;4.95;;;4.85;;
26820;SDS011;37186;51.394;5.454;2023-05-10T15:04:28;4.43;;;4.32;;
26820;SDS011;37186;51.394;5.454;2023-05-10T15:07:29;4.32;;;4.22;;
26820;SDS011;37186;51.394;5.454;2023-05-10T15:10:29;4.55;;;4.45;;
26820;SDS011;37186;51.394;5.454;2023-05-10T15:13:30;4.38;;;4.28;;
26820;SDS011;37186;51.394;5.454;2023-05-10T15:16:30;4.07;;;3.97;;
26820;SDS011;37186;51.394;5.454;2023-05-10T15:19:31;3.58;;;3.47;;
26820;SDS011;37186;51.394;5.454;2023-05-10T15:22:33;3.67;;;3.58;;
26820;SDS011;37186;51.394;5.454;2023-05-10T15:25:33;3.40;;;3.30;;
26820;SDS011;37186;51.394;5.454;2023-05-10T15:28:35;3.40;;;3.30;;
26820;SDS011;37186;51.394;5.454;2023-05-10T15:31:35;3.33;;;3.22;;
26820;SDS011;37186;51.394;5.454;2023-05-10T15:34:36;3.70;;;3.60;;
26820;SDS011;37186;51.394;5.454;2023-05-10T15:37:37;3.40;;;3.30;;
26820;SDS011;37186;51.394;5.454;2023-05-10T15:40:37;3.70;;;3.60;;
26820;SDS011;37186;51.394;5.454;2023-05-10T15:43:38;3.70;;;3.60;;
26820;SDS011;37186;51.394;5.454;2023-05-10T15:46:38;3.70;;;3.60;;
26820;SDS011;37186;51.394;5.454;2023-05-10T15:49:39;3.80;;;3.70;;
26820;SDS011;37186;51.394;5.454;2023-05-10T15:52:39;3.78;;;3.67;;
26820;SDS011;37186;51.394;5.454;2023-05-10T15:55:41;3.63;;;3.53;;
26820;SDS011;37186;51.394;5.454;2023-05-10T15:58:41;3.80;;;3.70;;
26820;SDS011;37186;51.394;5.454;2023-05-10T16:01:42;4.00;;;3.90;;
26820;SDS011;37186;51.394;5.454;2023-05-10T16:04:43;4.18;;;4.07;;
26820;SDS011;37186;51.394;5.454;2023-05-10T16:07:44;3.90;;;3.80;;
26820;SDS011;37186;51.394;5.454;2023-05-10T16:10:45;4.28;;;4.18;;
26820;SDS011;37186;51.394;5.454;2023-05-10T16:13:46;4.20;;;4.10;;
26820;SDS011;37186;51.394;5.454;2023-05-10T16:16:46;4.00;;;3.90;;
26820;SDS011;37186;51.394;5.454;2023-05-10T16:19:47;4.30;;;4.20;;
26820;SDS011;37186;51.394;5.454;2023-05-10T16:22:48;4.57;;;4.47;;
26820;SDS011;37186;51.394;5.454;2023-05-10T16:25:48;4.47;;;4.38;;
26820;SDS011;37186;51.394;5.454;2023-05-10T16:28:49;4.53;;;4.43;;
26820;SDS011;37186;51.394;5.454;2023-05-10T16:31:49;4.50;;;4.40;;
26820;SDS011;37186;51.394;5.454;2023-05-10T16:34:50;4.40;;;4.30;;
26820;SDS011;37186;51.394;5.454;2023-05-10T16:37:52;4.25;;;4.15;;
26820;SDS011;37186;51.394;5.454;2023-05-10T16:40:52;4.45;;;4.35;;
26820;SDS011;37186;51.394;5.454;2023-05-10T16:43:54;4.53;;;4.43;;
26820;SDS011;37186;51.394;5.454;2023-05-10T16:46:56;4.22;;;4.13;;
26820;SDS011;37186;51.394;5.454;2023-05-10T16:49:56;4.38;;;4.28;;
26820;SDS011;37186;51.394;5.454;2023-05-10T16:52:57;4.18;;;4.07;;
26820;SDS011;37186;51.394;5.454;2023-05-10T16:55:58;4.40;;;4.30;;
26820;SDS011;37186;51.394;5.454;2023-05-10T16:58:58;4.55;;;4.45;;
26820;SDS011;37186;51.394;5.454;2023-05-10T17:01:59;4.75;;;4.65;;
26820;SDS011;37186;51.394;5.454;2023-05-10T17:04:59;4.78;;;4.68;;
26820;SDS011;37186;51.394;5.454;2023-05-10T17:08:00;4.93;;;4.82;;
26820;SDS011;37186;51.394;5.454;2023-05-10T17:11:01;4.55;;;4.45;;
26820;SDS011;37186;51.394;5.454;2023-05-10T17:14:02;4.68;;;4.57;;
26820;SDS011;37186;51.394;5.454;2023-05-10T17:17:03;4.75;;;4.65;;
26820;SDS011;37186;51.394;5.454;2023-05-10T17:20:04;4.88;;;4.78;;
26820;SDS011;37186;51.394;5.454;2023-05-10T17:23:05;5.10;;;5.00;;
26820;SDS011;37186;51.394;5.454;2023-05-10T17:26:06;5.05;;;4.95;;
26820;SDS011;37186;51.394;5.454;2023-05-10T17:29:06;4.80;;;4.70;;
26820;SDS011;37186;51.394;5.454;2023-05-10T17:32:07;5.40;;;5.30;;
26820;SDS011;37186;51.394;5.454;2023-05-10T17:35:08;4.82;;;4.72;;
26820;SDS011;37186;51.394;5.454;2023-05-10T17:38:08;5.07;;;4.97;;
26820;SDS011;37186;51.394;5.454;2023-05-10T17:41:09;4.72;;;4.63;;
26820;SDS011;37186;51.394;5.454;2023-05-10T17:44:10;4.63;;;4.53;;
26820;SDS011;37186;51.394;5.454;2023-05-10T17:47:12;4.47;;;4.38;;
26820;SDS011;37186;51.394;5.454;2023-05-10T17:50:12;4.53;;;4.43;;
26820;SDS011;37186;51.394;5.454;2023-05-10T17:53:13;4.53;;;4.43;;
26820;SDS011;37186;51.394;5.454;2023-05-10T17:56:13;4.85;;;4.75;;
26820;SDS011;37186;51.394;5.454;2023-05-10T17:59:14;4.70;;;4.60;;
26820;SDS011;37186;51.394;5.454;2023-05-10T18:02:14;4.88;;;4.78;;
26820;SDS011;37186;51.394;5.454;2023-05-10T18:05:15;4.80;;;4.70;;
26820;SDS011;37186;51.394;5.454;2023-05-10T18:08:16;5.15;;;5.05;;
26820;SDS011;37186;51.394;5.454;2023-05-10T18:11:21;4.78;;;4.68;;
26820;SDS011;37186;51.394;5.454;2023-05-10T18:14:22;5.20;;;5.10;;
26820;SDS011;37186;51.394;5.454;2023-05-10T18:17:22;5.03;;;4.93;;
26820;SDS011;37186;51.394;5.454;2023-05-10T18:20:23;5.25;;;5.15;;
26820;SDS011;37186;51.394;5.454;2023-05-10T18:23:23;5.05;;;4.95;;
26820;SDS011;37186;51.394;5.454;2023-05-10T18:26:24;5.05;;;4.95;;
26820;SDS011;37186;51.394;5.454;2023-05-10T18:29:25;4.93;;;4.82;;
26820;SDS011;37186;51.394;5.454;2023-05-10T18:32:25;5.07;;;4.97;;
26820;SDS011;37186;51.394;5.454;2023-05-10T18:35:26;5.15;;;5.05;;
26820;SDS011;37186;51.394;5.454;2023-05-10T18:38:27;5.22;;;5.13;;
26820;SDS011;37186;51.394;5.454;2023-05-10T18:41:28;4.82;;;4.72;;
26820;SDS011;37186;51.394;5.454;2023-05-10T18:44:28;5.32;;;5.22;;
26820;SDS011;37186;51.394;5.454;2023-05-10T18:47:29;5.25;;;5.15;;